createdAt,value
2022-12-03T00:02:26.572Z,3.99
2022-12-03T00:04:53.573Z,3.95
2022-12-03T00:07:20.352Z,4.08
2022-12-03T00:09:46.970Z,4.08
2022-12-03T00:12:13.611Z,4.13
2022-12-03T00:14:44.577Z,4.08
2022-12-03T00:17:11.736Z,4.15
2022-12-03T00:19:38.391Z,4.23
2022-12-03T00:22:05.103Z,4.24
2022-12-03T00:24:31.957Z,4.42
2022-12-03T00:26:58.602Z,4.36
2022-12-03T00:29:25.224Z,4.47
2022-12-03T00:31:51.846Z,4.37
2022-12-03T00:34:18.546Z,4.29
2022-12-03T00:36:45.206Z,4.49
2022-12-03T00:39:11.800Z,4.38
2022-12-03T00:41:38.398Z,4.47
2022-12-03T00:44:05.300Z,4.37
2022-12-03T00:46:31.986Z,4.50
2022-12-03T00:48:58.637Z,4.55
2022-12-03T00:53:59.032Z,4.41
2022-12-03T00:56:25.683Z,4.28
2022-12-03T00:58:52.314Z,4.15
2022-12-03T01:01:19.070Z,4.16
2022-12-03T01:03:45.743Z,4.19
2022-12-03T01:06:12.457Z,4.30
2022-12-03T01:08:39.095Z,4.35
2022-12-03T01:11:25.925Z,4.35
2022-12-03T01:13:52.486Z,4.44
2022-12-03T01:16:19.157Z,4.19
2022-12-03T01:18:46.461Z,4.29
2022-12-03T01:21:13.119Z,4.28
2022-12-03T01:23:39.754Z,4.30
2022-12-03T01:26:06.351Z,4.31
2022-12-03T01:28:33.076Z,4.15
2022-12-03T01:31:18.269Z,4.21
2022-12-03T01:33:44.932Z,4.22
2022-12-03T01:36:11.599Z,4.25
2022-12-03T01:38:38.230Z,4.28
2022-12-03T01:41:10.102Z,4.12
2022-12-03T01:43:38.652Z,4.10
2022-12-03T01:46:05.616Z,4.05
2022-12-03T01:48:35.890Z,4.09
2022-12-03T01:51:02.627Z,4.07
2022-12-03T01:53:29.583Z,4.22
2022-12-03T01:55:56.452Z,4.16
2022-12-03T01:58:27.329Z,4.13
2022-12-03T02:00:54.010Z,4.42
2022-12-03T02:03:25.714Z,4.47
2022-12-03T02:05:53.449Z,4.41
2022-12-03T02:08:46.478Z,4.46
2022-12-03T02:11:15.892Z,4.52
2022-12-03T02:13:44.276Z,4.53
2022-12-03T02:16:11.155Z,4.56
2022-12-03T02:18:37.957Z,4.44
2022-12-03T02:21:23.386Z,4.36
2022-12-03T02:24:23.229Z,4.55
2022-12-03T02:26:49.925Z,4.34
2022-12-03T02:29:16.569Z,4.31
2022-12-03T02:31:44.008Z,4.19
2022-12-03T02:34:11.332Z,4.20
2022-12-03T02:36:39.108Z,4.15
2022-12-03T02:39:06.050Z,4.22
2022-12-03T02:41:51.562Z,4.29
2022-12-03T02:44:18.432Z,4.36
2022-12-03T02:46:45.118Z,4.39
2022-12-03T02:49:11.834Z,4.55
2022-12-03T02:51:38.582Z,4.62
2022-12-03T02:54:05.438Z,4.51
2022-12-03T02:56:32.826Z,4.62
2022-12-03T02:59:03.393Z,4.67
2022-12-03T03:01:30.235Z,4.70
2022-12-03T03:03:57.906Z,4.49
2022-12-03T03:06:24.880Z,4.60
2022-12-03T03:08:51.847Z,4.64
2022-12-03T03:11:18.773Z,4.43
2022-12-03T03:13:46.077Z,4.33
2022-12-03T03:16:12.998Z,4.32
2022-12-03T03:18:40.254Z,4.42
2022-12-03T03:21:07.362Z,4.40
2022-12-03T03:23:34.795Z,4.47
2022-12-03T03:26:03.974Z,4.42
2022-12-03T03:28:31.570Z,4.45
2022-12-03T03:31:00.814Z,4.36
2022-12-03T03:33:27.773Z,4.36
2022-12-03T03:35:54.595Z,4.21
2022-12-03T03:38:23.543Z,4.17
2022-12-03T03:40:51.558Z,4.24
2022-12-03T03:43:18.788Z,4.21
2022-12-03T03:45:45.545Z,4.33
2022-12-03T03:48:13.097Z,4.38
2022-12-03T03:53:19.794Z,4.40
2022-12-03T03:55:46.926Z,4.47
2022-12-03T03:58:13.855Z,4.53
2022-12-03T04:00:44.117Z,4.32
2022-12-03T04:03:11.879Z,4.30
2022-12-03T04:05:38.779Z,4.36
2022-12-03T04:08:05.550Z,4.41
2022-12-03T04:10:50.695Z,4.43
2022-12-03T04:13:17.326Z,4.30
2022-12-03T04:15:43.980Z,4.16
2022-12-03T04:18:29.189Z,4.28
2022-12-03T04:21:15.815Z,4.37
2022-12-03T04:23:42.517Z,4.34
2022-12-03T04:26:27.813Z,4.26
2022-12-03T04:28:54.614Z,4.21
2022-12-03T04:31:39.926Z,4.27
2022-12-03T04:34:25.436Z,4.34
2022-12-03T04:36:52.102Z,4.48
2022-12-03T04:39:18.918Z,4.53
2022-12-03T04:41:45.532Z,4.50
2022-12-03T04:44:30.676Z,4.45
2022-12-03T04:46:57.391Z,4.52
2022-12-03T04:49:24.080Z,4.61
2022-12-03T04:51:50.755Z,4.60
2022-12-03T04:54:17.432Z,4.50
2022-12-03T04:56:44.259Z,4.50
2022-12-03T04:59:15.805Z,4.39
2022-12-03T05:01:43.491Z,4.34
2022-12-03T05:04:10.508Z,4.23
2022-12-03T05:06:37.195Z,4.25
2022-12-03T05:09:04.122Z,4.29
2022-12-03T05:11:31.525Z,4.25
2022-12-03T05:13:58.086Z,4.33
2022-12-03T05:16:24.932Z,4.24
2022-12-03T05:18:51.751Z,4.27
2022-12-03T05:21:18.567Z,4.27
2022-12-03T05:23:45.244Z,4.43
2022-12-03T05:26:12.289Z,4.62
2022-12-03T05:28:38.918Z,4.59
2022-12-03T05:31:06.347Z,4.41
2022-12-03T05:33:33.382Z,4.45
2022-12-03T05:36:00.312Z,4.42
2022-12-03T05:38:26.950Z,4.42
2022-12-03T05:40:53.690Z,4.59
2022-12-03T05:43:20.371Z,4.51
2022-12-03T05:45:47.053Z,4.51
2022-12-03T05:48:15.991Z,4.46
2022-12-03T05:50:44.773Z,4.42
2022-12-03T05:53:12.790Z,4.47
2022-12-03T05:55:39.449Z,4.55
2022-12-03T05:58:06.553Z,4.25
2022-12-03T06:00:42.422Z,4.25
2022-12-03T06:03:09.388Z,4.36
2022-12-03T06:05:36.197Z,4.48
2022-12-03T06:08:02.975Z,4.32
2022-12-03T06:10:29.929Z,4.40
2022-12-03T06:12:56.830Z,4.40
2022-12-03T06:15:23.672Z,4.38
2022-12-03T06:17:50.421Z,4.45
2022-12-03T06:20:19.736Z,4.41
2022-12-03T06:22:47.653Z,4.35
2022-12-03T06:25:14.715Z,4.55
2022-12-03T06:27:41.250Z,4.46
2022-12-03T06:30:09.168Z,4.40
2022-12-03T06:32:35.913Z,4.46
2022-12-03T06:35:02.639Z,4.46
2022-12-03T06:37:29.280Z,4.31
2022-12-03T06:42:35.923Z,4.49
2022-12-03T06:45:03.162Z,4.29
2022-12-03T06:47:29.805Z,4.61
2022-12-03T06:49:56.431Z,4.69
2022-12-03T06:52:23.063Z,4.59
2022-12-03T06:54:49.680Z,4.47
2022-12-03T06:59:47.904Z,4.43
2022-12-03T07:02:14.580Z,4.46
2022-12-03T07:04:46.092Z,4.44
2022-12-03T07:07:13.720Z,4.31
2022-12-03T07:09:40.548Z,4.52
2022-12-03T07:12:07.182Z,4.42
2022-12-03T07:14:33.805Z,4.58
2022-12-03T07:17:00.382Z,4.69
2022-12-03T07:19:32.329Z,4.73
2022-12-03T07:21:59.372Z,4.60
2022-12-03T07:24:25.981Z,4.65
2022-12-03T07:26:52.609Z,4.71
2022-12-03T07:29:19.340Z,4.57
2022-12-03T07:31:46.007Z,4.49
2022-12-03T07:34:13.033Z,4.50
2022-12-03T07:36:39.735Z,4.48
2022-12-03T07:39:06.449Z,4.36
2022-12-03T07:41:33.250Z,4.37
2022-12-03T07:43:59.982Z,4.43
2022-12-03T07:46:26.850Z,4.42
2022-12-03T07:51:31.836Z,4.38
2022-12-03T07:53:58.917Z,4.41
2022-12-03T07:56:25.596Z,4.35
2022-12-03T07:58:52.292Z,4.46
2022-12-03T08:01:19.113Z,4.49
2022-12-03T08:03:45.897Z,4.46
2022-12-03T08:06:12.600Z,4.41
2022-12-03T08:08:39.697Z,4.55
2022-12-03T08:11:06.402Z,4.41
2022-12-03T08:13:34.534Z,4.46
2022-12-03T08:16:12.317Z,4.46
2022-12-03T08:23:51.270Z,4.50
2022-12-03T08:26:26.351Z,4.60
2022-12-03T08:28:53.975Z,4.47
2022-12-03T08:31:26.835Z,4.48
2022-12-03T08:34:21.049Z,4.39
2022-12-03T08:36:51.487Z,4.43
2022-12-03T08:39:28.042Z,4.37
2022-12-03T08:42:17.158Z,4.32
2022-12-03T08:44:44.060Z,4.59
2022-12-03T08:47:14.064Z,4.52
2022-12-03T08:49:41.054Z,4.52
2022-12-03T08:52:15.679Z,4.54
2022-12-03T08:54:43.886Z,4.46
2022-12-03T08:57:28.009Z,4.49
2022-12-03T09:00:00.067Z,4.38
2022-12-03T09:02:35.716Z,4.36
2022-12-03T09:05:18.851Z,4.39
2022-12-03T09:10:17.422Z,4.33
2022-12-03T09:12:44.041Z,4.35
2022-12-03T09:15:11.119Z,4.28
2022-12-03T09:17:37.794Z,4.27
2022-12-03T09:20:05.481Z,4.25
2022-12-03T09:22:32.430Z,4.26
2022-12-03T09:24:59.084Z,4.33
2022-12-03T09:27:25.861Z,4.41
2022-12-03T09:29:52.511Z,4.27
2022-12-03T09:32:19.266Z,4.31
2022-12-03T09:34:46.341Z,4.26
2022-12-03T09:39:46.270Z,4.20
2022-12-03T09:42:13.126Z,4.24
2022-12-03T09:44:39.743Z,4.30
2022-12-03T09:47:07.520Z,4.28
2022-12-03T09:49:36.828Z,4.26
2022-12-03T09:52:05.012Z,4.32
2022-12-03T09:54:32.729Z,4.30
2022-12-03T09:57:02.834Z,4.24
2022-12-03T09:59:34.856Z,4.31
2022-12-03T10:02:02.838Z,4.38
2022-12-03T10:04:30.155Z,4.21
2022-12-03T10:06:58.441Z,4.25
2022-12-03T10:09:28.212Z,4.29
2022-12-03T10:11:57.440Z,4.35
2022-12-03T10:14:24.335Z,4.35
2022-12-03T10:16:51.155Z,4.32
2022-12-03T10:19:27.768Z,4.25
2022-12-03T10:21:55.828Z,4.59
2022-12-03T10:24:31.706Z,4.43
2022-12-03T10:27:01.176Z,4.31
2022-12-03T10:29:34.542Z,4.29
2022-12-03T10:32:07.066Z,4.18
2022-12-03T10:34:39.206Z,4.27
2022-12-03T10:37:21.556Z,4.15
2022-12-03T10:39:57.225Z,4.11
2022-12-03T10:42:29.237Z,3.95
2022-12-03T10:45:13.579Z,3.93
2022-12-03T10:47:40.318Z,3.89
2022-12-03T10:50:19.647Z,3.89
2022-12-03T10:52:47.187Z,3.92
2022-12-03T10:55:14.974Z,4.08
2022-12-03T10:57:45.690Z,4.01
2022-12-03T11:00:17.546Z,3.97
2022-12-03T11:02:44.497Z,4.11
2022-12-03T11:05:17.120Z,3.97
2022-12-03T11:07:44.942Z,3.86
2022-12-03T11:10:16.892Z,3.92
2022-12-03T11:13:22.084Z,3.86
2022-12-03T11:15:49.017Z,3.85
2022-12-03T11:18:38.874Z,3.89
2022-12-03T11:21:12.912Z,3.91
2022-12-03T11:23:45.378Z,3.88
2022-12-03T11:26:18.842Z,3.78
2022-12-03T11:28:46.375Z,3.75
2022-12-03T11:31:45.329Z,5.18
2022-12-03T11:34:20.783Z,4.07
2022-12-03T11:37:11.957Z,3.88
2022-12-03T11:39:56.780Z,3.87
2022-12-03T11:42:26.344Z,3.78
2022-12-03T11:45:05.387Z,3.79
2022-12-03T11:47:45.702Z,3.64
2022-12-03T11:53:02.185Z,3.74
2022-12-03T11:55:33.275Z,3.83
2022-12-03T11:58:02.622Z,3.86
2022-12-03T12:00:29.415Z,3.80
2022-12-03T12:02:58.085Z,3.92
2022-12-03T12:05:33.535Z,3.87
2022-12-03T12:08:02.213Z,3.84
2022-12-03T12:10:47.658Z,3.91
2022-12-03T12:13:30.575Z,3.94
2022-12-03T12:16:05.321Z,3.97
2022-12-03T12:18:40.847Z,3.85
2022-12-03T12:21:38.273Z,3.91
2022-12-03T12:24:36.444Z,3.78
2022-12-03T12:27:07.257Z,3.75
2022-12-03T12:29:35.246Z,3.70
2022-12-03T12:32:29.554Z,3.81
2022-12-03T12:35:20.528Z,3.79
2022-12-03T12:38:00.162Z,3.70
2022-12-03T12:40:30.494Z,3.68
2022-12-03T12:43:11.566Z,3.78
2022-12-03T12:45:42.528Z,3.67
2022-12-03T12:48:15.085Z,3.61
2022-12-03T12:50:44.312Z,3.67
2022-12-03T12:53:11.041Z,3.89
2022-12-03T12:55:41.039Z,3.87
2022-12-03T12:58:19.877Z,3.70
2022-12-03T13:00:58.848Z,3.78
2022-12-03T13:03:29.298Z,3.69
2022-12-03T13:05:57.454Z,3.65
2022-12-03T13:08:24.121Z,3.71
2022-12-03T13:10:53.340Z,3.67
2022-12-03T13:13:30.480Z,3.63
2022-12-03T13:16:01.633Z,3.60
2022-12-03T13:18:33.914Z,3.62
2022-12-03T13:21:12.612Z,3.57
2022-12-03T13:23:39.658Z,3.71
2022-12-03T13:26:32.848Z,3.72
2022-12-03T13:29:06.406Z,3.80
2022-12-03T13:31:41.903Z,3.83
2022-12-03T13:34:25.256Z,3.73
2022-12-03T13:36:58.157Z,3.65
2022-12-03T13:39:32.727Z,3.69
2022-12-03T13:42:26.737Z,3.58
2022-12-03T13:44:53.580Z,3.50
2022-12-03T13:47:22.933Z,3.48
2022-12-03T13:49:54.298Z,3.61
2022-12-03T13:52:23.380Z,3.56
2022-12-03T13:54:53.718Z,3.42
2022-12-03T13:57:20.400Z,3.29
2022-12-03T14:02:21.587Z,3.48
2022-12-03T14:04:48.261Z,3.40
2022-12-03T14:07:14.902Z,3.34
2022-12-03T14:09:41.449Z,3.30
2022-12-03T14:12:26.168Z,3.38
2022-12-03T14:14:53.551Z,3.17
2022-12-03T14:17:20.482Z,3.25
2022-12-03T14:19:47.112Z,3.23
2022-12-03T14:22:13.706Z,3.29
2022-12-03T14:24:40.373Z,3.38
2022-12-03T14:27:07.052Z,3.42
2022-12-03T14:29:33.845Z,3.34
2022-12-03T14:34:31.828Z,3.09
2022-12-03T14:36:58.580Z,3.11
2022-12-03T14:39:25.316Z,3.12
2022-12-03T14:42:10.488Z,3.19
2022-12-03T14:44:37.221Z,3.28
2022-12-03T14:47:04.236Z,3.25
2022-12-03T14:49:30.938Z,3.25
2022-12-03T14:51:57.826Z,3.26
2022-12-03T14:54:24.586Z,3.15
2022-12-03T14:56:51.478Z,3.21
2022-12-03T14:59:20.705Z,3.24
2022-12-03T15:01:51.408Z,3.24
2022-12-03T15:04:18.500Z,3.30
2022-12-03T15:06:45.219Z,3.26
2022-12-03T15:09:11.967Z,3.29
2022-12-03T15:11:43.009Z,3.20
2022-12-03T15:14:12.694Z,3.17
2022-12-03T15:16:39.342Z,3.24
2022-12-03T15:19:06.025Z,3.27
2022-12-03T15:21:35.318Z,3.31
2022-12-03T15:24:02.650Z,3.99
2022-12-03T15:26:30.075Z,3.69
2022-12-03T15:28:56.799Z,3.57
2022-12-03T15:31:23.640Z,3.42
2022-12-03T15:33:50.462Z,3.36
2022-12-03T15:36:17.317Z,3.38
2022-12-03T15:38:43.996Z,3.47
2022-12-03T15:41:24.821Z,3.57
2022-12-03T15:43:52.706Z,3.37
2022-12-03T15:46:20.262Z,3.34
2022-12-03T15:48:47.358Z,3.35
2022-12-03T15:51:14.059Z,3.38
2022-12-03T15:53:40.742Z,3.40
2022-12-03T15:56:08.563Z,3.42
2022-12-03T15:58:35.249Z,3.32
2022-12-03T16:01:01.984Z,3.31
2022-12-03T16:03:28.668Z,3.30
2022-12-03T16:05:55.537Z,3.30
2022-12-03T16:08:22.367Z,3.20
2022-12-03T16:10:49.332Z,3.18
2022-12-03T16:13:15.967Z,3.14
2022-12-03T16:15:42.768Z,3.21
2022-12-03T16:18:09.435Z,3.15
2022-12-03T16:23:15.936Z,2.94
2022-12-03T16:25:42.535Z,3.06
2022-12-03T16:28:09.136Z,3.17
2022-12-03T16:30:36.347Z,3.31
2022-12-03T16:33:03.118Z,3.21
2022-12-03T16:35:29.852Z,3.18
2022-12-03T16:37:56.544Z,3.25
2022-12-03T16:42:54.501Z,3.22
2022-12-03T16:45:27.332Z,3.13
2022-12-03T16:47:53.994Z,3.16
2022-12-03T16:50:27.598Z,3.19
2022-12-03T16:52:56.430Z,3.12
2022-12-03T16:55:23.160Z,2.94
2022-12-03T16:57:49.823Z,2.92
2022-12-03T17:00:17.118Z,2.87
2022-12-03T17:02:43.887Z,2.87
2022-12-03T17:05:10.556Z,2.95
2022-12-03T17:07:37.331Z,2.94
2022-12-03T17:10:04.726Z,3.00
2022-12-03T17:12:54.078Z,2.98
2022-12-03T17:17:49.865Z,3.10
2022-12-03T17:20:18.012Z,2.97
2022-12-03T17:22:44.747Z,2.98
2022-12-03T17:25:12.079Z,2.94
2022-12-03T17:27:44.878Z,2.78
2022-12-03T17:30:12.316Z,2.71
2022-12-03T17:32:38.924Z,2.77
2022-12-03T17:35:05.958Z,2.79
2022-12-03T17:37:32.623Z,2.85
2022-12-03T17:39:59.446Z,2.91
2022-12-03T17:42:26.612Z,2.90
2022-12-03T17:44:53.261Z,2.79
2022-12-03T17:47:19.918Z,2.87
2022-12-03T17:49:46.588Z,2.91
2022-12-03T17:52:13.299Z,2.92
2022-12-03T17:55:08.329Z,2.99
2022-12-03T17:57:26.585Z,3.06
2022-12-03T17:59:53.566Z,3.12
2022-12-03T18:02:20.458Z,3.03
2022-12-03T18:04:47.107Z,3.14
2022-12-03T18:07:13.755Z,3.12
2022-12-03T18:09:40.321Z,3.11
2022-12-03T18:12:07.098Z,3.18
2022-12-03T18:14:33.796Z,3.08
2022-12-03T18:17:00.436Z,2.99
2022-12-03T18:19:27.021Z,3.04
2022-12-03T18:21:54.340Z,3.00
2022-12-03T18:24:21.449Z,2.94
2022-12-03T18:26:48.253Z,2.94
2022-12-03T18:29:14.898Z,2.94
2022-12-03T18:34:18.711Z,2.99
2022-12-03T18:36:45.925Z,3.06
2022-12-03T18:39:23.568Z,3.06
2022-12-03T18:41:50.265Z,3.15
2022-12-03T18:44:17.058Z,3.16
2022-12-03T18:46:59.218Z,3.21
2022-12-03T18:49:25.960Z,3.15
2022-12-03T18:51:59.038Z,3.17
2022-12-03T18:54:26.328Z,3.15
2022-12-03T18:56:52.930Z,3.10
2022-12-03T18:59:19.607Z,3.03
2022-12-03T19:01:46.288Z,2.85
2022-12-03T19:04:12.977Z,2.78
2022-12-03T19:06:40.498Z,2.79
2022-12-03T19:09:07.371Z,2.74
2022-12-03T19:11:34.246Z,2.83
2022-12-03T19:14:03.049Z,2.79
2022-12-03T19:16:29.911Z,2.75
2022-12-03T19:18:56.707Z,2.85
2022-12-03T19:21:23.497Z,2.84
2022-12-03T19:24:21.965Z,2.79
2022-12-03T19:26:36.760Z,2.86
2022-12-03T19:29:03.594Z,2.83
2022-12-03T19:31:33.403Z,2.78
2022-12-03T19:34:00.520Z,2.84
2022-12-03T19:36:29.977Z,4.73
2022-12-03T19:38:58.621Z,3.53
2022-12-03T19:41:27.500Z,3.33
2022-12-03T19:43:56.915Z,3.00
2022-12-03T19:46:25.482Z,2.96
2022-12-03T19:48:53.939Z,2.93
2022-12-03T19:51:34.153Z,2.78
2022-12-03T19:54:02.677Z,2.69
2022-12-03T19:56:30.571Z,2.71
2022-12-03T19:58:57.744Z,2.81
2022-12-03T20:01:28.350Z,2.60
2022-12-03T20:03:56.852Z,2.71
2022-12-03T20:06:27.115Z,2.55
2022-12-03T20:08:58.720Z,2.49
2022-12-03T20:11:28.665Z,2.64
2022-12-03T20:13:57.101Z,2.62
2022-12-03T20:16:25.376Z,2.49
2022-12-03T20:18:56.721Z,2.57
2022-12-03T20:21:23.849Z,2.54
2022-12-03T20:23:50.752Z,2.64
2022-12-03T20:26:19.888Z,2.62
2022-12-03T20:28:48.220Z,2.67
2022-12-03T20:31:17.571Z,2.59
2022-12-03T20:33:46.319Z,2.54
2022-12-03T20:36:15.732Z,2.47
2022-12-03T20:38:43.153Z,2.39
2022-12-03T20:41:18.761Z,2.53
2022-12-03T20:43:45.846Z,2.46
2022-12-03T20:46:20.793Z,2.48
2022-12-03T20:48:47.770Z,2.51
2022-12-03T20:51:19.639Z,2.62
2022-12-03T20:53:46.984Z,2.65
2022-12-03T20:56:42.296Z,2.69
2022-12-03T20:59:12.649Z,2.69
2022-12-03T21:01:40.479Z,2.69
2022-12-03T21:04:08.036Z,2.80
2022-12-03T21:06:37.045Z,2.78
2022-12-03T21:09:07.513Z,2.78
2022-12-03T21:11:36.098Z,2.85
2022-12-03T21:14:04.246Z,2.83
2022-12-03T21:17:05.885Z,2.82
2022-12-03T21:19:23.096Z,2.78
2022-12-03T21:21:49.986Z,2.67
2022-12-03T21:24:16.770Z,2.57
2022-12-03T21:26:43.394Z,2.65
2022-12-03T21:29:10.092Z,2.66
2022-12-03T21:31:38.456Z,2.76
2022-12-03T21:34:05.272Z,2.84
2022-12-03T21:36:32.198Z,2.93
2022-12-03T21:38:58.845Z,2.93
2022-12-03T21:41:25.565Z,2.87
2022-12-03T21:43:52.591Z,2.93
2022-12-03T21:47:11.157Z,3.14
2022-12-03T21:49:05.898Z,3.08
2022-12-03T21:51:32.519Z,3.09
2022-12-03T21:53:59.148Z,3.18
2022-12-03T21:56:25.891Z,3.19
2022-12-03T21:58:52.591Z,3.06
2022-12-03T22:01:24.270Z,3.10
2022-12-03T22:03:51.310Z,3.13
2022-12-03T22:06:18.828Z,3.05
2022-12-03T22:08:45.872Z,3.05
2022-12-03T22:11:18.045Z,3.08
2022-12-03T22:13:45.132Z,3.15
2022-12-03T22:16:15.238Z,3.06
2022-12-03T22:18:42.946Z,2.96
2022-12-03T22:23:44.018Z,3.11
2022-12-03T22:26:16.495Z,3.02
2022-12-03T22:28:45.504Z,3.03
2022-12-03T22:33:49.786Z,3.08
2022-12-03T22:36:21.106Z,3.17
2022-12-03T22:38:49.396Z,3.22
2022-12-03T22:41:16.386Z,3.50
2022-12-03T22:43:43.325Z,3.34
2022-12-03T22:46:12.828Z,3.30
2022-12-03T22:48:42.050Z,3.15
2022-12-03T22:51:17.404Z,3.15
2022-12-03T22:53:44.106Z,3.20
2022-12-03T22:56:11.000Z,3.00
2022-12-03T22:58:38.884Z,2.87
2022-12-03T23:01:05.990Z,2.89
2022-12-03T23:03:32.707Z,2.84
2022-12-03T23:05:59.343Z,2.93
2022-12-03T23:08:26.060Z,3.01
2022-12-03T23:10:53.442Z,2.95
2022-12-03T23:13:20.720Z,2.90
2022-12-03T23:15:49.352Z,2.90
2022-12-03T23:18:16.999Z,2.92
2022-12-03T23:20:45.751Z,2.97
2022-12-03T23:23:13.091Z,2.93
2022-12-03T23:25:39.893Z,2.98
2022-12-03T23:28:07.372Z,3.06
2022-12-03T23:30:38.892Z,3.04
2022-12-03T23:33:06.495Z,3.13
2022-12-03T23:35:33.644Z,3.04
2022-12-03T23:38:00.335Z,3.12
2022-12-03T23:40:27.058Z,3.00
2022-12-03T23:42:53.767Z,2.96
2022-12-03T23:45:20.408Z,2.93
2022-12-03T23:47:47.079Z,3.00
2022-12-03T23:50:14.580Z,3.12
2022-12-03T23:52:41.352Z,3.05
2022-12-03T23:55:08.348Z,3.17
2022-12-03T23:57:35.438Z,3.20
